sensor_id;sensor_type;location;lat;lon;timestamp;temperature;humidity
29803;DHT22;16702;50.898;4.662;2023-12-29T00:00:52;11.50;99.90
29803;DHT22;16702;50.898;4.662;2023-12-29T00:03:23;11.40;99.90
29803;DHT22;16702;50.898;4.662;2023-12-29T00:05:54;11.40;99.90
29803;DHT22;16702;50.898;4.662;2023-12-29T00:08:24;11.40;99.90
29803;DHT22;16702;50.898;4.662;2023-12-29T00:10:57;11.40;99.90
29803;DHT22;16702;50.898;4.662;2023-12-29T00:13:28;11.40;99.90
29803;DHT22;16702;50.898;4.662;2023-12-29T00:15:58;11.40;99.90
29803;DHT22;16702;50.898;4.662;2023-12-29T00:18:29;11.40;99.90
29803;DHT22;16702;50.898;4.662;2023-12-29T00:21:00;11.40;99.90
29803;DHT22;16702;50.898;4.662;2023-12-29T00:23:34;11.40;99.90
29803;DHT22;16702;50.898;4.662;2023-12-29T00:26:07;11.40;99.90
29803;DHT22;16702;50.898;4.662;2023-12-29T00:28:38;11.40;99.90
29803;DHT22;16702;50.898;4.662;2023-12-29T00:31:13;11.40;99.90
29803;DHT22;16702;50.898;4.662;2023-12-29T00:33:44;11.40;99.90
29803;DHT22;16702;50.898;4.662;2023-12-29T00:36:15;11.40;99.90
29803;DHT22;16702;50.898;4.662;2023-12-29T00:38:46;11.40;99.90
29803;DHT22;16702;50.898;4.662;2023-12-29T00:41:20;11.40;99.90
29803;DHT22;16702;50.898;4.662;2023-12-29T00:43:50;11.40;99.90
29803;DHT22;16702;50.898;4.662;2023-12-29T00:46:21;11.40;99.90
29803;DHT22;16702;50.898;4.662;2023-12-29T00:48:51;11.40;99.90
29803;DHT22;16702;50.898;4.662;2023-12-29T00:51:22;11.40;99.90
29803;DHT22;16702;50.898;4.662;2023-12-29T00:53:53;11.40;99.90
29803;DHT22;16702;50.898;4.662;2023-12-29T00:56:26;11.40;99.90
29803;DHT22;16702;50.898;4.662;2023-12-29T00:58:57;11.40;99.90
29803;DHT22;16702;50.898;4.662;2023-12-29T01:01:27;11.40;99.90
29803;DHT22;16702;50.898;4.662;2023-12-29T01:03:58;11.40;99.90
29803;DHT22;16702;50.898;4.662;2023-12-29T01:06:29;11.40;99.90
29803;DHT22;16702;50.898;4.662;2023-12-29T01:08:59;11.40;99.90
29803;DHT22;16702;50.898;4.662;2023-12-29T01:11:33;11.40;99.90
29803;DHT22;16702;50.898;4.662;2023-12-29T01:14:04;11.40;99.90
29803;DHT22;16702;50.898;4.662;2023-12-29T01:16:34;11.40;99.90
29803;DHT22;16702;50.898;4.662;2023-12-29T01:19:05;11.40;99.90
29803;DHT22;16702;50.898;4.662;2023-12-29T01:21:37;11.40;99.90
29803;DHT22;16702;50.898;4.662;2023-12-29T01:24:08;11.40;99.90
29803;DHT22;16702;50.898;4.662;2023-12-29T01:26:44;11.40;99.90
29803;DHT22;16702;50.898;4.662;2023-12-29T01:29:15;11.40;99.90
29803;DHT22;16702;50.898;4.662;2023-12-29T01:31:45;11.40;99.90
29803;DHT22;16702;50.898;4.662;2023-12-29T01:34:16;11.40;99.90
29803;DHT22;16702;50.898;4.662;2023-12-29T01:36:47;11.40;99.90
29803;DHT22;16702;50.898;4.662;2023-12-29T01:39:18;11.40;99.90
29803;DHT22;16702;50.898;4.662;2023-12-29T01:41:51;11.40;99.90
29803;DHT22;16702;50.898;4.662;2023-12-29T01:44:22;11.50;99.90
29803;DHT22;16702;50.898;4.662;2023-12-29T01:46:56;11.30;99.90
29803;DHT22;16702;50.898;4.662;2023-12-29T01:49:28;11.40;99.90
29803;DHT22;16702;50.898;4.662;2023-12-29T01:52:00;11.40;99.90
29803;DHT22;16702;50.898;4.662;2023-12-29T01:54:34;11.40;99.90
29803;DHT22;16702;50.898;4.662;2023-12-29T01:57:11;11.40;99.90
29803;DHT22;16702;50.898;4.662;2023-12-29T01:59:42;11.40;99.90
29803;DHT22;16702;50.898;4.662;2023-12-29T02:02:13;11.40;99.90
29803;DHT22;16702;50.898;4.662;2023-12-29T02:04:44;11.40;99.90
29803;DHT22;16702;50.898;4.662;2023-12-29T02:07:15;11.40;99.90
29803;DHT22;16702;50.898;4.662;2023-12-29T02:09:46;11.40;99.90
29803;DHT22;16702;50.898;4.662;2023-12-29T02:12:21;11.40;99.90
29803;DHT22;16702;50.898;4.662;2023-12-29T02:14:52;11.50;99.90
29803;DHT22;16702;50.898;4.662;2023-12-29T02:17:26;11.50;99.90
29803;DHT22;16702;50.898;4.662;2023-12-29T02:19:58;11.50;99.90
29803;DHT22;16702;50.898;4.662;2023-12-29T02:22:28;11.50;99.90
29803;DHT22;16702;50.898;4.662;2023-12-29T02:25:02;11.50;99.90
29803;DHT22;16702;50.898;4.662;2023-12-29T02:27:41;11.50;99.90
29803;DHT22;16702;50.898;4.662;2023-12-29T02:30:18;11.50;99.90
29803;DHT22;16702;50.898;4.662;2023-12-29T02:32:55;11.50;99.90
29803;DHT22;16702;50.898;4.662;2023-12-29T02:35:28;11.50;99.90
29803;DHT22;16702;50.898;4.662;2023-12-29T02:37:59;11.50;99.90
29803;DHT22;16702;50.898;4.662;2023-12-29T02:40:32;11.50;99.90
29803;DHT22;16702;50.898;4.662;2023-12-29T02:43:03;11.50;99.90
29803;DHT22;16702;50.898;4.662;2023-12-29T02:45:34;11.50;99.90
29803;DHT22;16702;50.898;4.662;2023-12-29T02:48:05;11.60;99.90
29803;DHT22;16702;50.898;4.662;2023-12-29T02:50:36;11.50;99.90
29803;DHT22;16702;50.898;4.662;2023-12-29T02:53:07;11.60;99.90
29803;DHT22;16702;50.898;4.662;2023-12-29T02:55:40;11.50;99.90
29803;DHT22;16702;50.898;4.662;2023-12-29T02:58:11;11.50;99.90
29803;DHT22;16702;50.898;4.662;2023-12-29T03:00:42;11.60;99.90
29803;DHT22;16702;50.898;4.662;2023-12-29T03:03:13;11.60;99.90
29803;DHT22;16702;50.898;4.662;2023-12-29T03:05:43;11.60;99.90
29803;DHT22;16702;50.898;4.662;2023-12-29T03:08:14;11.60;99.90
29803;DHT22;16702;50.898;4.662;2023-12-29T03:10:47;11.60;99.90
29803;DHT22;16702;50.898;4.662;2023-12-29T03:13:18;11.60;99.90
29803;DHT22;16702;50.898;4.662;2023-12-29T03:15:48;11.60;99.90
29803;DHT22;16702;50.898;4.662;2023-12-29T03:18:19;11.60;99.90
29803;DHT22;16702;50.898;4.662;2023-12-29T03:20:49;11.50;99.90
29803;DHT22;16702;50.898;4.662;2023-12-29T03:23:21;11.50;99.90
29803;DHT22;16702;50.898;4.662;2023-12-29T03:25:54;11.60;99.90
29803;DHT22;16702;50.898;4.662;2023-12-29T03:28:25;11.60;99.90
29803;DHT22;16702;50.898;4.662;2023-12-29T03:30:56;11.50;99.90
29803;DHT22;16702;50.898;4.662;2023-12-29T03:33:26;11.50;99.90
29803;DHT22;16702;50.898;4.662;2023-12-29T03:35:58;11.50;99.90
29803;DHT22;16702;50.898;4.662;2023-12-29T03:38:29;11.50;99.90
29803;DHT22;16702;50.898;4.662;2023-12-29T03:41:03;11.40;99.90
29803;DHT22;16702;50.898;4.662;2023-12-29T03:43:34;11.40;99.90
29803;DHT22;16702;50.898;4.662;2023-12-29T03:46:15;11.40;99.90
29803;DHT22;16702;50.898;4.662;2023-12-29T03:48:46;11.40;99.90
29803;DHT22;16702;50.898;4.662;2023-12-29T03:51:20;11.40;99.90
29803;DHT22;16702;50.898;4.662;2023-12-29T03:53:50;11.30;99.90
29803;DHT22;16702;50.898;4.662;2023-12-29T03:56:24;11.30;99.90
29803;DHT22;16702;50.898;4.662;2023-12-29T03:58:54;11.30;99.90
29803;DHT22;16702;50.898;4.662;2023-12-29T04:01:25;11.40;99.90
29803;DHT22;16702;50.898;4.662;2023-12-29T04:03:56;11.30;99.90
29803;DHT22;16702;50.898;4.662;2023-12-29T04:06:27;11.20;99.90
29803;DHT22;16702;50.898;4.662;2023-12-29T04:08:57;11.30;99.90
29803;DHT22;16702;50.898;4.662;2023-12-29T04:11:31;11.30;99.90
29803;DHT22;16702;50.898;4.662;2023-12-29T04:14:01;11.30;99.90
29803;DHT22;16702;50.898;4.662;2023-12-29T04:16:32;11.30;99.90
29803;DHT22;16702;50.898;4.662;2023-12-29T04:19:02;11.30;99.90
29803;DHT22;16702;50.898;4.662;2023-12-29T04:21:33;11.20;99.90
29803;DHT22;16702;50.898;4.662;2023-12-29T04:24:04;11.20;99.90
29803;DHT22;16702;50.898;4.662;2023-12-29T04:26:38;11.20;99.90
29803;DHT22;16702;50.898;4.662;2023-12-29T04:29:09;11.20;99.90
29803;DHT22;16702;50.898;4.662;2023-12-29T04:31:39;11.30;99.90
29803;DHT22;16702;50.898;4.662;2023-12-29T04:34:14;11.20;99.90
29803;DHT22;16702;50.898;4.662;2023-12-29T04:36:45;11.20;99.90
29803;DHT22;16702;50.898;4.662;2023-12-29T04:39:16;11.20;99.90
29803;DHT22;16702;50.898;4.662;2023-12-29T04:41:49;11.20;99.90
29803;DHT22;16702;50.898;4.662;2023-12-29T04:44:20;11.20;99.90
29803;DHT22;16702;50.898;4.662;2023-12-29T04:46:50;11.20;99.90
29803;DHT22;16702;50.898;4.662;2023-12-29T04:49:21;11.20;99.90
29803;DHT22;16702;50.898;4.662;2023-12-29T04:51:51;11.20;99.90
29803;DHT22;16702;50.898;4.662;2023-12-29T04:54:23;11.20;99.90
29803;DHT22;16702;50.898;4.662;2023-12-29T04:56:57;11.10;99.90
29803;DHT22;16702;50.898;4.662;2023-12-29T04:59:27;11.20;99.90
29803;DHT22;16702;50.898;4.662;2023-12-29T05:01:58;11.20;99.90
29803;DHT22;16702;50.898;4.662;2023-12-29T05:04:28;11.20;99.90
29803;DHT22;16702;50.898;4.662;2023-12-29T05:06:59;11.20;99.90
29803;DHT22;16702;50.898;4.662;2023-12-29T05:09:30;11.20;99.90
29803;DHT22;16702;50.898;4.662;2023-12-29T05:12:03;11.20;99.90
29803;DHT22;16702;50.898;4.662;2023-12-29T05:14:35;11.20;99.90
29803;DHT22;16702;50.898;4.662;2023-12-29T05:17:05;11.20;99.90
29803;DHT22;16702;50.898;4.662;2023-12-29T05:19:36;11.20;99.90
29803;DHT22;16702;50.898;4.662;2023-12-29T05:22:07;11.20;99.90
29803;DHT22;16702;50.898;4.662;2023-12-29T05:24:40;11.20;99.90
29803;DHT22;16702;50.898;4.662;2023-12-29T05:27:13;11.20;99.90
29803;DHT22;16702;50.898;4.662;2023-12-29T05:29:44;11.10;99.90
29803;DHT22;16702;50.898;4.662;2023-12-29T05:32:14;11.20;99.90
29803;DHT22;16702;50.898;4.662;2023-12-29T05:34:45;11.30;99.90
29803;DHT22;16702;50.898;4.662;2023-12-29T05:37:16;11.30;99.90
29803;DHT22;16702;50.898;4.662;2023-12-29T05:39:46;11.30;99.90
29803;DHT22;16702;50.898;4.662;2023-12-29T05:42:20;11.30;99.90
29803;DHT22;16702;50.898;4.662;2023-12-29T05:44:50;11.30;99.90
29803;DHT22;16702;50.898;4.662;2023-12-29T05:47:21;11.30;99.90
29803;DHT22;16702;50.898;4.662;2023-12-29T05:49:52;11.20;99.90
29803;DHT22;16702;50.898;4.662;2023-12-29T05:52:22;11.30;99.90
29803;DHT22;16702;50.898;4.662;2023-12-29T05:54:53;11.30;99.90
29803;DHT22;16702;50.898;4.662;2023-12-29T05:57:26;11.30;99.90
29803;DHT22;16702;50.898;4.662;2023-12-29T05:59:57;11.30;99.90
29803;DHT22;16702;50.898;4.662;2023-12-29T06:02:38;11.30;99.90
29803;DHT22;16702;50.898;4.662;2023-12-29T06:05:10;11.30;99.90
29803;DHT22;16702;50.898;4.662;2023-12-29T06:07:41;11.20;99.90
29803;DHT22;16702;50.898;4.662;2023-12-29T06:10:12;11.20;99.90
29803;DHT22;16702;50.898;4.662;2023-12-29T06:12:45;11.20;99.90
29803;DHT22;16702;50.898;4.662;2023-12-29T06:15:16;11.10;99.90
29803;DHT22;16702;50.898;4.662;2023-12-29T06:17:47;11.10;99.90
29803;DHT22;16702;50.898;4.662;2023-12-29T06:20:18;11.10;99.90
29803;DHT22;16702;50.898;4.662;2023-12-29T06:22:49;11.00;99.90
29803;DHT22;16702;50.898;4.662;2023-12-29T06:25:20;11.00;99.90
29803;DHT22;16702;50.898;4.662;2023-12-29T06:27:53;11.00;99.90
29803;DHT22;16702;50.898;4.662;2023-12-29T06:30:25;10.90;99.90
29803;DHT22;16702;50.898;4.662;2023-12-29T06:32:55;10.90;99.90
29803;DHT22;16702;50.898;4.662;2023-12-29T06:35:26;10.90;99.90
29803;DHT22;16702;50.898;4.662;2023-12-29T06:37:57;10.90;99.90
29803;DHT22;16702;50.898;4.662;2023-12-29T06:40:28;10.90;99.90
29803;DHT22;16702;50.898;4.662;2023-12-29T06:43:01;10.90;99.90
29803;DHT22;16702;50.898;4.662;2023-12-29T06:45:32;10.80;99.90
29803;DHT22;16702;50.898;4.662;2023-12-29T06:48:03;10.80;99.90
29803;DHT22;16702;50.898;4.662;2023-12-29T06:50:35;10.80;99.90
29803;DHT22;16702;50.898;4.662;2023-12-29T06:53:06;10.80;99.90
29803;DHT22;16702;50.898;4.662;2023-12-29T06:55:36;10.80;99.90
29803;DHT22;16702;50.898;4.662;2023-12-29T06:58:10;10.80;99.90
29803;DHT22;16702;50.898;4.662;2023-12-29T07:00:41;10.80;99.90
29803;DHT22;16702;50.898;4.662;2023-12-29T07:03:13;10.80;99.90
29803;DHT22;16702;50.898;4.662;2023-12-29T07:05:44;10.80;99.90
29803;DHT22;16702;50.898;4.662;2023-12-29T07:08:15;10.70;99.90
29803;DHT22;16702;50.898;4.662;2023-12-29T07:10:45;10.80;99.90
29803;DHT22;16702;50.898;4.662;2023-12-29T07:13:20;10.80;99.90
29803;DHT22;16702;50.898;4.662;2023-12-29T07:15:51;10.80;99.90
29803;DHT22;16702;50.898;4.662;2023-12-29T07:18:22;10.80;99.90
29803;DHT22;16702;50.898;4.662;2023-12-29T07:20:53;10.70;99.90
29803;DHT22;16702;50.898;4.662;2023-12-29T07:23:23;10.70;99.90
29803;DHT22;16702;50.898;4.662;2023-12-29T07:25:54;10.70;99.90
29803;DHT22;16702;50.898;4.662;2023-12-29T07:28:27;10.70;99.90
29803;DHT22;16702;50.898;4.662;2023-12-29T07:30:58;10.70;99.90
29803;DHT22;16702;50.898;4.662;2023-12-29T07:33:29;10.70;99.90
29803;DHT22;16702;50.898;4.662;2023-12-29T07:36:00;10.70;99.90
29803;DHT22;16702;50.898;4.662;2023-12-29T07:38:31;10.70;99.90
29803;DHT22;16702;50.898;4.662;2023-12-29T07:41:02;10.70;99.90
29803;DHT22;16702;50.898;4.662;2023-12-29T07:43:35;10.70;99.90
29803;DHT22;16702;50.898;4.662;2023-12-29T07:46:06;10.70;99.90
29803;DHT22;16702;50.898;4.662;2023-12-29T07:48:37;10.70;99.90
29803;DHT22;16702;50.898;4.662;2023-12-29T07:51:07;10.70;99.90
29803;DHT22;16702;50.898;4.662;2023-12-29T07:53:38;10.70;99.90
29803;DHT22;16702;50.898;4.662;2023-12-29T07:56:10;10.80;99.90
29803;DHT22;16702;50.898;4.662;2023-12-29T07:58:43;10.70;99.90
29803;DHT22;16702;50.898;4.662;2023-12-29T08:01:16;10.70;99.90
29803;DHT22;16702;50.898;4.662;2023-12-29T08:03:47;10.70;99.90
29803;DHT22;16702;50.898;4.662;2023-12-29T08:06:18;10.80;99.90
29803;DHT22;16702;50.898;4.662;2023-12-29T08:08:48;10.70;99.90
29803;DHT22;16702;50.898;4.662;2023-12-29T08:11:19;10.70;99.90
29803;DHT22;16702;50.898;4.662;2023-12-29T08:13:52;10.70;99.90
29803;DHT22;16702;50.898;4.662;2023-12-29T08:16:23;10.80;99.90
29803;DHT22;16702;50.898;4.662;2023-12-29T08:18:54;10.70;99.90
29803;DHT22;16702;50.898;4.662;2023-12-29T08:21:24;10.70;99.90
29803;DHT22;16702;50.898;4.662;2023-12-29T08:23:56;10.70;99.90
29803;DHT22;16702;50.898;4.662;2023-12-29T08:26:27;10.70;99.90
29803;DHT22;16702;50.898;4.662;2023-12-29T08:29:00;10.70;99.90
29803;DHT22;16702;50.898;4.662;2023-12-29T08:31:30;10.70;99.90
29803;DHT22;16702;50.898;4.662;2023-12-29T08:34:01;10.70;99.90
29803;DHT22;16702;50.898;4.662;2023-12-29T08:36:32;10.70;99.90
29803;DHT22;16702;50.898;4.662;2023-12-29T08:39:03;10.70;99.90
29803;DHT22;16702;50.898;4.662;2023-12-29T08:41:33;10.70;99.90
29803;DHT22;16702;50.898;4.662;2023-12-29T08:44:07;10.70;99.90
29803;DHT22;16702;50.898;4.662;2023-12-29T08:46:37;10.70;99.90
29803;DHT22;16702;50.898;4.662;2023-12-29T08:49:08;10.70;99.90
29803;DHT22;16702;50.898;4.662;2023-12-29T08:51:39;10.70;99.90
29803;DHT22;16702;50.898;4.662;2023-12-29T08:54:09;10.70;99.90
29803;DHT22;16702;50.898;4.662;2023-12-29T08:56:40;10.80;99.90
29803;DHT22;16702;50.898;4.662;2023-12-29T08:59:13;10.80;99.90
29803;DHT22;16702;50.898;4.662;2023-12-29T09:01:44;10.80;99.90
29803;DHT22;16702;50.898;4.662;2023-12-29T09:04:15;10.80;99.90
29803;DHT22;16702;50.898;4.662;2023-12-29T09:06:46;10.80;99.90
29803;DHT22;16702;50.898;4.662;2023-12-29T09:09:16;10.80;99.90
29803;DHT22;16702;50.898;4.662;2023-12-29T09:11:47;10.80;99.90
29803;DHT22;16702;50.898;4.662;2023-12-29T09:14:20;10.80;99.90
29803;DHT22;16702;50.898;4.662;2023-12-29T09:16:51;10.80;99.90
29803;DHT22;16702;50.898;4.662;2023-12-29T09:19:21;10.80;99.90
29803;DHT22;16702;50.898;4.662;2023-12-29T09:22:06;10.70;99.90
29803;DHT22;16702;50.898;4.662;2023-12-29T09:24:36;10.80;99.90
29803;DHT22;16702;50.898;4.662;2023-12-29T09:27:07;10.80;99.90
29803;DHT22;16702;50.898;4.662;2023-12-29T09:29:41;10.80;99.90
29803;DHT22;16702;50.898;4.662;2023-12-29T09:32:11;10.80;99.90
29803;DHT22;16702;50.898;4.662;2023-12-29T09:34:42;10.80;99.90
29803;DHT22;16702;50.898;4.662;2023-12-29T09:37:12;10.80;99.90
29803;DHT22;16702;50.898;4.662;2023-12-29T09:39:43;10.90;99.90
29803;DHT22;16702;50.898;4.662;2023-12-29T09:42:19;10.90;99.90
29803;DHT22;16702;50.898;4.662;2023-12-29T09:44:53;10.90;99.90
29803;DHT22;16702;50.898;4.662;2023-12-29T09:47:24;10.90;99.90
29803;DHT22;16702;50.898;4.662;2023-12-29T09:49:55;10.80;99.90
29803;DHT22;16702;50.898;4.662;2023-12-29T09:52:26;10.90;99.90
29803;DHT22;16702;50.898;4.662;2023-12-29T09:54:57;10.90;99.90
29803;DHT22;16702;50.898;4.662;2023-12-29T09:57:28;10.90;99.90
29803;DHT22;16702;50.898;4.662;2023-12-29T10:00:02;10.90;99.90
29803;DHT22;16702;50.898;4.662;2023-12-29T10:02:37;10.90;99.90
29803;DHT22;16702;50.898;4.662;2023-12-29T10:05:08;10.90;99.90
29803;DHT22;16702;50.898;4.662;2023-12-29T10:07:39;10.90;99.90
29803;DHT22;16702;50.898;4.662;2023-12-29T10:10:14;10.90;99.90
29803;DHT22;16702;50.898;4.662;2023-12-29T10:12:48;10.90;99.90
29803;DHT22;16702;50.898;4.662;2023-12-29T10:15:28;10.90;99.90
29803;DHT22;16702;50.898;4.662;2023-12-29T10:18:12;10.90;99.90
29803;DHT22;16702;50.898;4.662;2023-12-29T10:20:54;10.90;99.90
29803;DHT22;16702;50.898;4.662;2023-12-29T10:23:35;10.90;99.90
29803;DHT22;16702;50.898;4.662;2023-12-29T10:26:07;11.00;99.90
29803;DHT22;16702;50.898;4.662;2023-12-29T10:28:41;11.00;99.90
29803;DHT22;16702;50.898;4.662;2023-12-29T10:31:15;11.00;99.90
29803;DHT22;16702;50.898;4.662;2023-12-29T10:33:46;11.00;99.90
29803;DHT22;16702;50.898;4.662;2023-12-29T10:36:19;11.10;99.90
29803;DHT22;16702;50.898;4.662;2023-12-29T10:39:06;11.10;99.90
29803;DHT22;16702;50.898;4.662;2023-12-29T10:41:37;11.10;99.90
29803;DHT22;16702;50.898;4.662;2023-12-29T10:44:08;11.10;99.90
29803;DHT22;16702;50.898;4.662;2023-12-29T10:46:41;11.20;99.90
29803;DHT22;16702;50.898;4.662;2023-12-29T10:49:13;11.20;99.90
29803;DHT22;16702;50.898;4.662;2023-12-29T10:51:44;11.20;99.90
29803;DHT22;16702;50.898;4.662;2023-12-29T10:54:19;11.20;99.90
29803;DHT22;16702;50.898;4.662;2023-12-29T10:57:01;11.20;99.90
29803;DHT22;16702;50.898;4.662;2023-12-29T10:59:32;11.20;99.90
29803;DHT22;16702;50.898;4.662;2023-12-29T11:02:06;11.30;99.90
29803;DHT22;16702;50.898;4.662;2023-12-29T11:04:42;11.20;99.90
29803;DHT22;16702;50.898;4.662;2023-12-29T11:07:13;11.20;99.90
29803;DHT22;16702;50.898;4.662;2023-12-29T11:09:44;11.20;99.90
29803;DHT22;16702;50.898;4.662;2023-12-29T11:12:15;11.20;99.90
29803;DHT22;16702;50.898;4.662;2023-12-29T11:14:46;11.20;99.90
29803;DHT22;16702;50.898;4.662;2023-12-29T11:17:21;11.20;99.90
29803;DHT22;16702;50.898;4.662;2023-12-29T11:19:52;11.30;99.90
29803;DHT22;16702;50.898;4.662;2023-12-29T11:22:24;11.20;99.90
29803;DHT22;16702;50.898;4.662;2023-12-29T11:24:58;11.30;99.90
29803;DHT22;16702;50.898;4.662;2023-12-29T11:27:30;11.30;99.90
29803;DHT22;16702;50.898;4.662;2023-12-29T11:30:03;11.30;99.90
29803;DHT22;16702;50.898;4.662;2023-12-29T11:32:43;11.30;99.90
29803;DHT22;16702;50.898;4.662;2023-12-29T11:35:21;11.40;99.90
29803;DHT22;16702;50.898;4.662;2023-12-29T11:38:16;11.30;99.90
29803;DHT22;16702;50.898;4.662;2023-12-29T11:40:59;11.40;99.90
29803;DHT22;16702;50.898;4.662;2023-12-29T11:43:32;11.40;99.90
29803;DHT22;16702;50.898;4.662;2023-12-29T11:46:03;11.40;99.90
29803;DHT22;16702;50.898;4.662;2023-12-29T11:48:58;11.40;99.90
29803;DHT22;16702;50.898;4.662;2023-12-29T11:51:33;11.40;99.90
29803;DHT22;16702;50.898;4.662;2023-12-29T11:54:05;11.40;99.90
29803;DHT22;16702;50.898;4.662;2023-12-29T11:56:37;11.40;99.90
29803;DHT22;16702;50.898;4.662;2023-12-29T11:59:15;11.40;99.90
29803;DHT22;16702;50.898;4.662;2023-12-29T12:01:48;11.40;99.90
29803;DHT22;16702;50.898;4.662;2023-12-29T12:04:37;11.40;99.90
29803;DHT22;16702;50.898;4.662;2023-12-29T12:07:17;11.40;99.90
29803;DHT22;16702;50.898;4.662;2023-12-29T12:10:28;11.40;99.90
29803;DHT22;16702;50.898;4.662;2023-12-29T12:13:01;11.40;99.90
29803;DHT22;16702;50.898;4.662;2023-12-29T12:15:33;11.30;99.90
29803;DHT22;16702;50.898;4.662;2023-12-29T12:18:05;11.30;99.90
29803;DHT22;16702;50.898;4.662;2023-12-29T12:20:39;11.30;99.90
29803;DHT22;16702;50.898;4.662;2023-12-29T12:23:12;11.30;99.90
29803;DHT22;16702;50.898;4.662;2023-12-29T12:25:48;11.20;99.90
29803;DHT22;16702;50.898;4.662;2023-12-29T12:28:20;11.30;99.90
29803;DHT22;16702;50.898;4.662;2023-12-29T12:30:51;11.30;99.90
29803;DHT22;16702;50.898;4.662;2023-12-29T12:33:21;11.20;99.90
29803;DHT22;16702;50.898;4.662;2023-12-29T12:36:01;11.20;99.90
29803;DHT22;16702;50.898;4.662;2023-12-29T12:38:32;11.20;99.90
29803;DHT22;16702;50.898;4.662;2023-12-29T12:41:10;11.20;99.90
29803;DHT22;16702;50.898;4.662;2023-12-29T12:43:50;11.20;99.90
29803;DHT22;16702;50.898;4.662;2023-12-29T12:46:23;11.20;99.90
29803;DHT22;16702;50.898;4.662;2023-12-29T12:48:55;11.20;99.90
29803;DHT22;16702;50.898;4.662;2023-12-29T12:51:28;11.20;99.90
29803;DHT22;16702;50.898;4.662;2023-12-29T12:53:59;11.10;99.90
29803;DHT22;16702;50.898;4.662;2023-12-29T12:56:30;11.10;99.90
29803;DHT22;16702;50.898;4.662;2023-12-29T12:59:02;11.20;99.90
29803;DHT22;16702;50.898;4.662;2023-12-29T13:01:35;11.20;99.90
29803;DHT22;16702;50.898;4.662;2023-12-29T13:04:07;11.20;99.90
29803;DHT22;16702;50.898;4.662;2023-12-29T13:06:43;11.20;99.90
29803;DHT22;16702;50.898;4.662;2023-12-29T13:09:18;11.20;99.90
29803;DHT22;16702;50.898;4.662;2023-12-29T13:11:49;11.20;99.90
29803;DHT22;16702;50.898;4.662;2023-12-29T13:14:20;11.20;99.90
29803;DHT22;16702;50.898;4.662;2023-12-29T13:16:53;11.10;99.90
29803;DHT22;16702;50.898;4.662;2023-12-29T13:19:24;11.20;99.90
29803;DHT22;16702;50.898;4.662;2023-12-29T13:21:58;11.10;99.90
29803;DHT22;16702;50.898;4.662;2023-12-29T13:24:28;11.10;99.90
29803;DHT22;16702;50.898;4.662;2023-12-29T13:27:04;11.20;99.90
29803;DHT22;16702;50.898;4.662;2023-12-29T13:29:35;11.20;99.90
29803;DHT22;16702;50.898;4.662;2023-12-29T13:32:10;11.20;99.90
29803;DHT22;16702;50.898;4.662;2023-12-29T13:34:50;11.10;99.90
29803;DHT22;16702;50.898;4.662;2023-12-29T13:37:36;11.20;99.90
29803;DHT22;16702;50.898;4.662;2023-12-29T13:40:13;11.20;99.90
29803;DHT22;16702;50.898;4.662;2023-12-29T13:42:47;11.20;99.90
29803;DHT22;16702;50.898;4.662;2023-12-29T13:45:19;11.20;99.90
29803;DHT22;16702;50.898;4.662;2023-12-29T13:47:50;11.20;99.90
29803;DHT22;16702;50.898;4.662;2023-12-29T13:50:22;11.30;99.90
29803;DHT22;16702;50.898;4.662;2023-12-29T13:52:55;11.30;99.90
29803;DHT22;16702;50.898;4.662;2023-12-29T13:55:26;11.30;99.90
29803;DHT22;16702;50.898;4.662;2023-12-29T13:57:57;11.20;99.90
29803;DHT22;16702;50.898;4.662;2023-12-29T14:00:28;11.20;99.90
29803;DHT22;16702;50.898;4.662;2023-12-29T14:03:02;11.20;99.90
29803;DHT22;16702;50.898;4.662;2023-12-29T14:05:39;11.20;99.90
29803;DHT22;16702;50.898;4.662;2023-12-29T14:08:23;11.20;99.90
29803;DHT22;16702;50.898;4.662;2023-12-29T14:10:54;11.20;99.90
29803;DHT22;16702;50.898;4.662;2023-12-29T14:13:24;11.20;99.90
29803;DHT22;16702;50.898;4.662;2023-12-29T14:15:58;11.30;99.90
29803;DHT22;16702;50.898;4.662;2023-12-29T14:18:56;11.20;99.90
29803;DHT22;16702;50.898;4.662;2023-12-29T14:21:28;11.20;99.90
29803;DHT22;16702;50.898;4.662;2023-12-29T14:24:07;11.20;99.90
29803;DHT22;16702;50.898;4.662;2023-12-29T14:26:39;11.20;99.90
29803;DHT22;16702;50.898;4.662;2023-12-29T14:29:13;11.20;99.90
29803;DHT22;16702;50.898;4.662;2023-12-29T14:31:45;11.20;99.90
29803;DHT22;16702;50.898;4.662;2023-12-29T14:34:15;11.20;99.90
29803;DHT22;16702;50.898;4.662;2023-12-29T14:36:46;11.20;99.90
29803;DHT22;16702;50.898;4.662;2023-12-29T14:39:20;11.20;99.90
29803;DHT22;16702;50.898;4.662;2023-12-29T14:41:51;11.20;99.90
29803;DHT22;16702;50.898;4.662;2023-12-29T14:44:21;11.20;99.90
29803;DHT22;16702;50.898;4.662;2023-12-29T14:46:52;11.20;99.90
29803;DHT22;16702;50.898;4.662;2023-12-29T14:49:23;11.10;99.90
29803;DHT22;16702;50.898;4.662;2023-12-29T14:51:54;11.10;99.90
29803;DHT22;16702;50.898;4.662;2023-12-29T14:54:27;11.10;99.90
29803;DHT22;16702;50.898;4.662;2023-12-29T14:56:58;11.10;99.90
29803;DHT22;16702;50.898;4.662;2023-12-29T14:59:37;11.10;99.90
29803;DHT22;16702;50.898;4.662;2023-12-29T15:02:08;11.10;99.90
29803;DHT22;16702;50.898;4.662;2023-12-29T15:04:38;11.20;99.90
29803;DHT22;16702;50.898;4.662;2023-12-29T15:07:09;11.20;99.90
29803;DHT22;16702;50.898;4.662;2023-12-29T15:09:42;11.20;99.90
29803;DHT22;16702;50.898;4.662;2023-12-29T15:12:13;11.20;99.90
29803;DHT22;16702;50.898;4.662;2023-12-29T15:14:43;11.10;99.90
29803;DHT22;16702;50.898;4.662;2023-12-29T15:17:14;11.10;99.90
29803;DHT22;16702;50.898;4.662;2023-12-29T15:19:45;11.10;99.90
29803;DHT22;16702;50.898;4.662;2023-12-29T15:22:15;11.10;99.90
29803;DHT22;16702;50.898;4.662;2023-12-29T15:24:49;11.10;99.90
29803;DHT22;16702;50.898;4.662;2023-12-29T15:27:20;11.10;99.90
29803;DHT22;16702;50.898;4.662;2023-12-29T15:29:53;11.10;99.90
29803;DHT22;16702;50.898;4.662;2023-12-29T15:32:23;11.20;99.90
29803;DHT22;16702;50.898;4.662;2023-12-29T15:34:54;11.20;99.90
29803;DHT22;16702;50.898;4.662;2023-12-29T15:37:24;11.10;99.90
29803;DHT22;16702;50.898;4.662;2023-12-29T15:39:58;11.10;99.90
29803;DHT22;16702;50.898;4.662;2023-12-29T15:42:29;11.10;99.90
29803;DHT22;16702;50.898;4.662;2023-12-29T15:44:59;11.10;99.90
29803;DHT22;16702;50.898;4.662;2023-12-29T15:47:30;11.10;99.90
29803;DHT22;16702;50.898;4.662;2023-12-29T15:50:01;11.10;99.90
29803;DHT22;16702;50.898;4.662;2023-12-29T15:52:31;11.10;99.90
29803;DHT22;16702;50.898;4.662;2023-12-29T15:55:06;11.10;99.90
29803;DHT22;16702;50.898;4.662;2023-12-29T15:57:37;11.10;99.90
29803;DHT22;16702;50.898;4.662;2023-12-29T16:00:10;11.10;99.90
29803;DHT22;16702;50.898;4.662;2023-12-29T16:02:41;11.10;99.90